createdAt,value
2023-03-04T00:01:21.190Z,6.40
2023-03-04T00:03:48.146Z,6.40
2023-03-04T00:06:15.094Z,6.40
2023-03-04T00:08:42.339Z,6.40
2023-03-04T00:11:09.226Z,6.40
2023-03-04T00:13:36.178Z,6.40
2023-03-04T00:16:03.210Z,6.40
2023-03-04T00:18:30.124Z,6.40
2023-03-04T00:20:57.409Z,6.40
2023-03-04T00:23:24.478Z,6.40
2023-03-04T00:25:51.397Z,6.40
2023-03-04T00:28:18.709Z,6.40
2023-03-04T00:30:45.856Z,6.40
2023-03-04T00:33:12.916Z,6.40
2023-03-04T00:35:40.263Z,6.40
2023-03-04T00:38:12.424Z,6.40
2023-03-04T00:40:39.359Z,6.40
2023-03-04T00:43:06.275Z,6.30
2023-03-04T00:45:33.544Z,6.40
2023-03-04T00:48:00.476Z,6.40
2023-03-04T00:50:27.506Z,6.30
2023-03-04T00:52:54.435Z,6.30
2023-03-04T00:55:21.690Z,6.30
2023-03-04T00:57:48.651Z,6.30
2023-03-04T01:00:16.104Z,6.30
2023-03-04T01:02:43.209Z,6.40
2023-03-04T01:05:10.893Z,6.30
2023-03-04T01:07:37.880Z,6.40
2023-03-04T01:10:07.351Z,6.30
2023-03-04T01:12:34.339Z,6.30
2023-03-04T01:15:01.779Z,6.30
2023-03-04T01:17:30.246Z,6.40
2023-03-04T01:19:57.508Z,6.40
2023-03-04T01:22:24.531Z,6.30
2023-03-04T01:24:51.510Z,6.40
2023-03-04T01:27:18.707Z,6.30
2023-03-04T01:29:45.745Z,6.30
2023-03-04T01:32:12.885Z,6.30
2023-03-04T01:34:40.179Z,6.30
2023-03-04T01:37:07.167Z,6.30
2023-03-04T01:39:34.170Z,6.30
2023-03-04T01:42:01.199Z,6.30
2023-03-04T01:44:31.405Z,6.30
2023-03-04T01:46:58.622Z,6.30
2023-03-04T01:49:25.728Z,6.30
2023-03-04T01:51:54.797Z,6.30
2023-03-04T01:54:23.293Z,6.30
2023-03-04T01:56:52.662Z,6.30
2023-03-04T01:59:22.186Z,6.30
2023-03-04T02:01:58.609Z,6.30
2023-03-04T02:04:32.833Z,6.30
2023-03-04T02:07:01.500Z,6.30
2023-03-04T02:09:30.031Z,6.30
2023-03-04T02:11:57.653Z,6.30
2023-03-04T02:14:24.802Z,6.30
2023-03-04T02:16:52.408Z,6.30
2023-03-04T02:19:34.403Z,6.30
2023-03-04T02:22:01.504Z,6.30
2023-03-04T02:24:47.638Z,6.30
2023-03-04T02:27:15.012Z,6.30
2023-03-04T02:29:41.979Z,6.30
2023-03-04T02:32:11.591Z,6.30
2023-03-04T02:34:41.091Z,6.20
2023-03-04T02:37:10.915Z,6.20
2023-03-04T02:39:43.555Z,6.20
2023-03-04T02:42:12.820Z,6.30
2023-03-04T02:44:46.538Z,6.30
2023-03-04T02:47:17.904Z,6.20
2023-03-04T02:49:46.524Z,6.20
2023-03-04T02:52:18.051Z,6.20
2023-03-04T02:54:47.174Z,6.20
2023-03-04T02:57:15.050Z,6.20
2023-03-04T02:59:45.112Z,6.20
2023-03-04T03:02:17.419Z,6.20
2023-03-04T03:04:44.533Z,6.20
2023-03-04T03:07:14.191Z,6.20
2023-03-04T03:09:41.966Z,6.20
2023-03-04T03:12:08.985Z,6.20
2023-03-04T03:14:36.022Z,6.20
2023-03-04T03:17:04.708Z,6.20
2023-03-04T03:19:32.210Z,6.20
2023-03-04T03:22:01.025Z,6.20
2023-03-04T03:24:28.134Z,6.30
2023-03-04T03:26:56.821Z,6.20
2023-03-04T03:29:24.525Z,6.30
2023-03-04T03:31:51.505Z,6.30
2023-03-04T03:34:20.760Z,6.20
2023-03-04T03:36:48.688Z,6.30
2023-03-04T03:39:15.775Z,6.20
2023-03-04T03:41:42.904Z,6.30
2023-03-04T03:44:12.951Z,6.30
2023-03-04T03:46:39.852Z,6.20
2023-03-04T03:49:06.921Z,6.20
2023-03-04T03:51:33.967Z,6.30
2023-03-04T03:54:01.031Z,6.20
2023-03-04T03:56:27.952Z,6.20
2023-03-04T03:58:54.886Z,6.20
2023-03-04T04:01:21.779Z,6.20
2023-03-04T04:03:48.644Z,6.20
2023-03-04T04:06:15.651Z,6.20
2023-03-04T04:08:42.616Z,6.20
2023-03-04T04:11:11.160Z,6.20
2023-03-04T04:13:39.367Z,6.20
2023-03-04T04:16:07.062Z,6.20
2023-03-04T04:18:34.077Z,6.20
2023-03-04T04:21:01.091Z,6.20
2023-03-04T04:23:27.988Z,6.20
2023-03-04T04:25:58.755Z,6.20
2023-03-04T04:28:25.763Z,6.20
2023-03-04T04:30:53.145Z,6.20
2023-03-04T04:33:20.253Z,6.20
2023-03-04T04:35:47.300Z,6.20
2023-03-04T04:38:14.301Z,6.20
2023-03-04T04:40:43.161Z,6.20
2023-03-04T04:43:10.237Z,6.20
2023-03-04T04:45:37.308Z,6.20
2023-03-04T04:48:04.391Z,6.20
2023-03-04T04:50:32.938Z,6.20
2023-03-04T04:53:00.314Z,6.20
2023-03-04T04:55:28.373Z,6.20
2023-03-04T04:57:55.328Z,6.20
2023-03-04T05:00:22.384Z,6.20
2023-03-04T05:02:49.416Z,6.20
2023-03-04T05:05:16.395Z,6.20
2023-03-04T05:07:43.516Z,6.20
2023-03-04T05:10:11.200Z,6.20
2023-03-04T05:12:38.369Z,6.20
2023-03-04T05:15:05.805Z,6.20
2023-03-04T05:17:33.123Z,6.10
2023-03-04T05:20:00.276Z,6.20
2023-03-04T05:22:27.222Z,6.10
2023-03-04T05:24:54.419Z,6.10
2023-03-04T05:27:21.423Z,6.10
2023-03-04T05:29:48.398Z,6.10
2023-03-04T05:32:15.562Z,6.10
2023-03-04T05:34:42.584Z,6.10
2023-03-04T05:37:09.541Z,6.10
2023-03-04T05:39:36.462Z,6.10
2023-03-04T05:42:03.505Z,6.10
2023-03-04T05:44:30.405Z,6.10
2023-03-04T05:46:57.610Z,6.00
2023-03-04T05:49:24.569Z,6.00
2023-03-04T05:51:51.532Z,6.00
2023-03-04T05:54:18.545Z,6.00
2023-03-04T05:56:45.980Z,6.00
2023-03-04T05:59:13.032Z,6.10
2023-03-04T06:01:39.930Z,6.10
2023-03-04T06:04:07.071Z,6.10
2023-03-04T06:06:34.053Z,6.10
2023-03-04T06:09:01.304Z,6.10
2023-03-04T06:11:28.202Z,6.10
2023-03-04T06:13:55.244Z,6.10
2023-03-04T06:16:22.250Z,6.10
2023-03-04T06:18:49.228Z,6.10
2023-03-04T06:21:16.201Z,6.10
2023-03-04T06:23:44.674Z,6.00
2023-03-04T06:26:15.721Z,6.10
2023-03-04T06:28:44.149Z,6.10
2023-03-04T06:31:11.198Z,6.00
2023-03-04T06:33:38.201Z,6.00
2023-03-04T06:36:05.507Z,6.00
2023-03-04T06:38:32.632Z,6.00
2023-03-04T06:41:08.252Z,6.00
2023-03-04T06:43:35.779Z,6.00
2023-03-04T06:46:02.877Z,6.00
2023-03-04T06:48:29.780Z,6.00
2023-03-04T06:50:57.085Z,6.00
2023-03-04T06:53:24.242Z,6.00
2023-03-04T06:55:51.279Z,6.00
2023-03-04T06:58:18.356Z,6.00
2023-03-04T07:00:45.391Z,6.00
2023-03-04T07:03:13.807Z,6.00
2023-03-04T07:05:40.930Z,6.10
2023-03-04T07:08:08.116Z,6.10
2023-03-04T07:10:35.092Z,6.10
2023-03-04T07:13:02.372Z,6.10
2023-03-04T07:15:29.756Z,6.10
2023-03-04T07:17:56.712Z,6.10
2023-03-04T07:20:23.630Z,6.10
2023-03-04T07:22:50.637Z,6.10
2023-03-04T07:25:18.260Z,6.00
2023-03-04T07:27:45.343Z,6.00
2023-03-04T07:30:12.741Z,5.90
2023-03-04T07:32:40.111Z,5.90
2023-03-04T07:35:07.728Z,5.90
2023-03-04T07:37:34.938Z,5.90
2023-03-04T07:40:02.074Z,6.00
2023-03-04T07:42:29.059Z,6.00
2023-03-04T07:45:05.755Z,6.10
2023-03-04T07:47:32.673Z,6.10
2023-03-04T07:49:59.728Z,6.20
2023-03-04T07:52:26.719Z,6.20
2023-03-04T07:54:53.636Z,6.30
2023-03-04T07:57:20.841Z,6.30
2023-03-04T07:59:47.849Z,6.40
2023-03-04T08:02:15.698Z,6.40
2023-03-04T08:04:42.698Z,6.50
2023-03-04T08:07:09.748Z,6.60
2023-03-04T08:09:36.760Z,6.60
2023-03-04T08:12:03.873Z,6.70
2023-03-04T08:14:30.863Z,6.80
2023-03-04T08:16:57.770Z,7.00
2023-03-04T08:19:26.021Z,7.00
2023-03-04T08:21:53.212Z,7.00
2023-03-04T08:24:20.128Z,7.10
2023-03-04T08:26:49.188Z,7.10
2023-03-04T08:29:21.444Z,7.00
2023-03-04T08:31:49.718Z,7.00
2023-03-04T08:34:17.852Z,7.00
2023-03-04T08:36:45.460Z,7.00
2023-03-04T08:39:14.297Z,7.00
2023-03-04T08:41:41.632Z,7.10
2023-03-04T08:44:10.628Z,7.10
2023-03-04T08:46:52.871Z,7.10
2023-03-04T08:49:19.879Z,7.10
2023-03-04T08:51:46.876Z,7.20
2023-03-04T08:54:13.815Z,7.30
2023-03-04T08:56:41.899Z,7.30
2023-03-04T08:59:08.968Z,7.40
2023-03-04T09:01:36.007Z,7.40
2023-03-04T09:04:03.094Z,7.40
2023-03-04T09:06:30.171Z,7.30
2023-03-04T09:08:57.520Z,7.30
2023-03-04T09:11:24.617Z,7.30
2023-03-04T09:13:51.959Z,7.20
2023-03-04T09:16:19.303Z,7.10
2023-03-04T09:18:46.688Z,7.20
2023-03-04T09:21:13.656Z,7.20
2023-03-04T09:23:43.819Z,7.20
2023-03-04T09:26:30.051Z,7.20
2023-03-04T09:28:59.401Z,7.10
2023-03-04T09:31:27.628Z,7.00
2023-03-04T09:33:56.512Z,7.10
2023-03-04T09:36:24.420Z,7.10
2023-03-04T09:38:51.987Z,7.20
2023-03-04T09:41:26.618Z,7.20
2023-03-04T09:43:58.355Z,7.30
2023-03-04T09:46:39.095Z,7.40
2023-03-04T09:49:07.488Z,7.40
2023-03-04T09:51:34.864Z,7.40
2023-03-04T09:54:12.390Z,7.40
2023-03-04T09:56:44.946Z,7.50
2023-03-04T09:59:17.916Z,7.50
2023-03-04T10:01:53.785Z,7.60
2023-03-04T10:04:40.079Z,7.60
2023-03-04T10:07:26.274Z,7.70
2023-03-04T10:10:03.097Z,7.80
2023-03-04T10:12:33.264Z,7.90
2023-03-04T10:15:44.597Z,8.00
2023-03-04T10:18:20.620Z,8.10
2023-03-04T10:21:02.411Z,8.30
2023-03-04T10:23:31.927Z,8.30
2023-03-04T10:26:08.837Z,8.30
2023-03-04T10:28:36.251Z,8.20
2023-03-04T10:31:32.201Z,8.20
2023-03-04T10:33:59.399Z,8.10
2023-03-04T10:36:26.343Z,8.10
2023-03-04T10:39:05.594Z,8.00
2023-03-04T10:41:33.422Z,8.00
2023-03-04T10:44:09.749Z,7.90
2023-03-04T10:46:41.414Z,7.90
2023-03-04T10:49:11.056Z,7.90
2023-03-04T10:51:50.400Z,7.90
2023-03-04T10:54:26.533Z,8.00
2023-03-04T10:57:56.896Z,8.10
2023-03-04T11:00:29.235Z,8.20
2023-03-04T11:03:29.852Z,8.30
2023-03-04T11:06:11.846Z,8.40
2023-03-04T11:08:42.706Z,8.50
2023-03-04T11:11:25.046Z,8.60
2023-03-04T11:13:57.890Z,8.50
2023-03-04T11:16:33.081Z,8.60
2023-03-04T11:19:13.433Z,8.70
2023-03-04T11:21:42.010Z,8.70
2023-03-04T11:24:28.111Z,8.80
2023-03-04T11:27:06.681Z,8.90
2023-03-04T11:29:43.719Z,9.00
2023-03-04T11:32:19.145Z,9.00
2023-03-04T11:35:15.215Z,8.90
2023-03-04T11:38:00.643Z,9.00
2023-03-04T11:41:14.259Z,9.20
2023-03-04T11:43:46.505Z,9.40
2023-03-04T11:46:36.776Z,9.40
2023-03-04T11:49:41.480Z,9.30
2023-03-04T11:52:31.658Z,9.20
2023-03-04T11:55:38.980Z,9.20
2023-03-04T11:58:34.060Z,9.20
2023-03-04T12:01:15.063Z,9.10
2023-03-04T12:04:07.040Z,9.10
2023-03-04T12:06:55.918Z,9.10
2023-03-04T12:09:28.790Z,9.10
2023-03-04T12:12:35.212Z,9.10
2023-03-04T12:15:06.988Z,9.00
2023-03-04T12:17:58.630Z,9.10
2023-03-04T12:20:34.417Z,9.30
2023-03-04T12:23:12.088Z,9.50
2023-03-04T12:25:48.180Z,9.70
2023-03-04T12:28:24.174Z,9.90
2023-03-04T12:31:07.830Z,10.00
2023-03-04T12:34:11.634Z,10.00
2023-03-04T12:36:53.527Z,9.90
2023-03-04T12:40:00.000Z,9.70
2023-03-04T12:42:47.300Z,9.40
2023-03-04T12:45:29.608Z,9.20
2023-03-04T12:48:07.083Z,8.90
2023-03-04T12:50:55.297Z,8.60
2023-03-04T12:53:45.464Z,8.40
2023-03-04T12:56:39.025Z,8.30
2023-03-04T12:59:07.971Z,8.30
2023-03-04T13:01:45.335Z,8.30
2023-03-04T13:04:23.299Z,8.30
2023-03-04T13:07:35.619Z,8.40
2023-03-04T13:10:10.802Z,8.60
2023-03-04T13:12:58.135Z,8.70
2023-03-04T13:15:25.150Z,8.80
2023-03-04T13:18:32.514Z,8.90
2023-03-04T13:21:14.836Z,9.10
2023-03-04T13:23:42.184Z,9.20
2023-03-04T13:26:18.313Z,9.20
2023-03-04T13:28:45.576Z,9.30
2023-03-04T13:31:27.152Z,9.30
2023-03-04T13:33:59.891Z,9.30
2023-03-04T13:36:45.346Z,9.40
2023-03-04T13:39:15.457Z,9.40
2023-03-04T13:41:54.181Z,9.50
2023-03-04T13:45:01.203Z,9.60
2023-03-04T13:47:40.630Z,9.50
2023-03-04T13:50:34.815Z,9.30
2023-03-04T13:53:31.369Z,9.20
2023-03-04T13:56:29.413Z,9.20
2023-03-04T13:59:08.567Z,9.20
2023-03-04T14:01:41.643Z,9.10
2023-03-04T14:04:21.593Z,9.10
2023-03-04T14:06:50.423Z,9.10
2023-03-04T14:09:25.054Z,9.10
2023-03-04T14:11:54.616Z,9.00
2023-03-04T14:14:29.582Z,9.00
2023-03-04T14:17:06.177Z,8.90
2023-03-04T14:19:38.620Z,8.90
2023-03-04T14:22:22.131Z,8.90
2023-03-04T14:25:01.993Z,9.00
2023-03-04T14:27:31.236Z,9.10
2023-03-04T14:30:00.150Z,9.00
2023-03-04T14:32:28.792Z,9.10
2023-03-04T14:35:06.318Z,9.10
2023-03-04T14:37:48.313Z,9.10
2023-03-04T14:40:22.602Z,9.00
2023-03-04T14:42:59.818Z,8.90
2023-03-04T14:45:27.388Z,8.90
2023-03-04T14:47:59.726Z,8.80
2023-03-04T14:50:26.752Z,8.80
2023-03-04T14:53:08.852Z,8.80
2023-03-04T14:55:35.897Z,8.80
2023-03-04T14:58:19.998Z,8.80
2023-03-04T15:00:48.091Z,8.80
2023-03-04T15:03:23.524Z,8.80
2023-03-04T15:05:52.961Z,8.90
2023-03-04T15:08:29.949Z,9.00
2023-03-04T15:11:02.684Z,9.10
2023-03-04T15:13:44.720Z,9.20
2023-03-04T15:16:14.823Z,9.20
2023-03-04T15:19:06.114Z,9.10
2023-03-04T15:21:36.866Z,9.10
2023-03-04T15:24:06.301Z,9.00
2023-03-04T15:26:37.752Z,9.00
2023-03-04T15:29:14.609Z,8.90
2023-03-04T15:31:42.147Z,8.80
2023-03-04T15:34:14.340Z,8.70
2023-03-04T15:36:44.126Z,8.70
2023-03-04T15:39:14.775Z,8.70
2023-03-04T15:41:42.035Z,8.60
2023-03-04T15:44:12.304Z,8.60
2023-03-04T15:46:39.388Z,8.60
2023-03-04T15:49:06.374Z,8.60
2023-03-04T15:51:33.483Z,8.60
2023-03-04T15:54:01.438Z,8.60
2023-03-04T15:56:33.929Z,8.60
2023-03-04T15:59:11.001Z,8.70
2023-03-04T16:01:38.389Z,8.70
2023-03-04T16:04:05.851Z,8.60
2023-03-04T16:06:33.324Z,8.60
2023-03-04T16:09:01.005Z,8.50
2023-03-04T16:11:30.389Z,8.50
2023-03-04T16:14:00.415Z,8.50
2023-03-04T16:16:27.528Z,8.40
2023-03-04T16:18:54.570Z,8.30
2023-03-04T16:21:25.137Z,8.30
2023-03-04T16:23:53.002Z,8.20
2023-03-04T16:26:22.266Z,8.30
2023-03-04T16:28:49.944Z,8.20
2023-03-04T16:31:18.467Z,8.20
2023-03-04T16:33:45.836Z,8.10
2023-03-04T16:36:26.641Z,8.10
2023-03-04T16:38:59.566Z,8.10
2023-03-04T16:41:30.652Z,8.10
2023-03-04T16:44:01.412Z,8.00
2023-03-04T16:46:30.097Z,8.00
2023-03-04T16:48:59.934Z,8.00
2023-03-04T16:51:28.530Z,8.00
2023-03-04T16:53:58.197Z,7.90
2023-03-04T16:56:25.761Z,7.90
2023-03-04T16:58:56.062Z,7.90
2023-03-04T17:01:27.091Z,7.90
2023-03-04T17:03:55.763Z,7.80
2023-03-04T17:06:23.614Z,7.80
2023-03-04T17:08:51.017Z,7.70
2023-03-04T17:11:20.770Z,7.70
2023-03-04T17:13:48.323Z,7.60
2023-03-04T17:16:15.955Z,7.60
2023-03-04T17:18:44.477Z,7.50
2023-03-04T17:21:18.585Z,7.50
2023-03-04T17:23:45.983Z,7.50
2023-03-04T17:26:13.566Z,7.50
2023-03-04T17:28:40.853Z,7.40
2023-03-04T17:31:16.973Z,7.40
2023-03-04T17:33:47.665Z,7.40
2023-03-04T17:36:16.454Z,7.40
2023-03-04T17:38:43.711Z,7.40
2023-03-04T17:41:17.108Z,7.30
2023-03-04T17:43:49.315Z,7.30
2023-03-04T17:46:19.727Z,7.20
2023-03-04T17:48:46.710Z,7.20
2023-03-04T17:51:13.796Z,7.20
2023-03-04T17:53:40.888Z,7.20
2023-03-04T17:56:17.298Z,7.20
2023-03-04T17:58:48.684Z,7.20
2023-03-04T18:01:19.442Z,7.30
2023-03-04T18:03:46.789Z,7.20
2023-03-04T18:06:27.562Z,7.20
2023-03-04T18:08:55.312Z,7.20
2023-03-04T18:11:24.067Z,7.20
2023-03-04T18:13:51.417Z,7.20
2023-03-04T18:16:23.534Z,7.20
2023-03-04T18:18:51.443Z,7.10
2023-03-04T18:21:19.908Z,7.10
2023-03-04T18:23:47.310Z,7.00
2023-03-04T18:26:14.522Z,7.00
2023-03-04T18:28:41.879Z,6.90
2023-03-04T18:31:10.461Z,6.90
2023-03-04T18:33:37.975Z,6.90
2023-03-04T18:36:08.309Z,6.80
2023-03-04T18:38:37.847Z,6.80
2023-03-04T18:41:08.426Z,6.80
2023-03-04T18:43:36.184Z,6.80
2023-03-04T18:46:44.477Z,6.80
2023-03-04T18:49:14.489Z,6.70
2023-03-04T18:51:42.234Z,6.60
2023-03-04T18:54:09.384Z,6.60
2023-03-04T18:56:41.796Z,6.60
2023-03-04T18:59:10.736Z,6.60
2023-03-04T19:01:37.991Z,6.60
2023-03-04T19:04:05.904Z,6.60
2023-03-04T19:06:33.930Z,6.50
2023-03-04T19:09:01.579Z,6.50
2023-03-04T19:11:31.710Z,6.50
2023-03-04T19:13:58.935Z,6.50
2023-03-04T19:16:27.307Z,6.50
2023-03-04T19:18:54.358Z,6.50
2023-03-04T19:21:21.369Z,6.60
2023-03-04T19:23:48.561Z,6.50
2023-03-04T19:26:15.795Z,6.50
2023-03-04T19:28:43.401Z,6.50
2023-03-04T19:31:11.765Z,6.50
2023-03-04T19:33:41.303Z,6.50
2023-03-04T19:36:09.581Z,6.50
2023-03-04T19:38:39.972Z,6.50
2023-03-04T19:41:15.853Z,6.50
2023-03-04T19:43:43.264Z,6.50
2023-03-04T19:46:11.068Z,6.40
2023-03-04T19:48:39.939Z,6.40
2023-03-04T19:51:19.279Z,6.30
2023-03-04T19:53:46.835Z,6.30
2023-03-04T19:56:14.010Z,6.20
2023-03-04T19:58:41.098Z,6.20
2023-03-04T20:01:18.969Z,6.10
2023-03-04T20:03:46.248Z,6.10
2023-03-04T20:06:16.546Z,6.10
2023-03-04T20:08:43.581Z,6.10
2023-03-04T20:11:16.738Z,6.10
2023-03-04T20:13:49.796Z,6.20
2023-03-04T20:16:17.499Z,6.20
2023-03-04T20:18:47.392Z,6.20
2023-03-04T20:21:14.668Z,6.20
2023-03-04T20:23:41.976Z,6.20
2023-03-04T20:26:09.068Z,6.10
2023-03-04T20:28:49.238Z,6.10
2023-03-04T20:31:23.101Z,6.10
2023-03-04T20:33:51.622Z,6.10
2023-03-04T20:36:21.503Z,6.00
2023-03-04T20:39:02.079Z,6.00
2023-03-04T20:41:30.867Z,6.00
2023-03-04T20:44:00.990Z,6.00
2023-03-04T20:46:42.006Z,5.90
2023-03-04T20:49:24.404Z,5.90
2023-03-04T20:51:53.390Z,5.90
2023-03-04T20:54:20.756Z,5.90
2023-03-04T20:56:51.708Z,5.90
2023-03-04T20:59:18.641Z,5.90
2023-03-04T21:01:48.107Z,5.90
2023-03-04T21:04:15.993Z,5.90
2023-03-04T21:06:45.120Z,5.90
2023-03-04T21:09:18.590Z,5.90
2023-03-04T21:11:46.516Z,6.00
2023-03-04T21:14:22.506Z,5.90
2023-03-04T21:16:51.681Z,5.90
2023-03-04T21:19:33.207Z,5.90
2023-03-04T21:22:03.612Z,5.90
2023-03-04T21:24:35.093Z,5.90
2023-03-04T21:27:04.791Z,5.80
2023-03-04T21:29:32.067Z,5.80
2023-03-04T21:32:20.929Z,5.70
2023-03-04T21:34:52.178Z,5.70
2023-03-04T21:37:21.233Z,5.50
2023-03-04T21:39:48.637Z,5.50
2023-03-04T21:42:16.075Z,5.40
2023-03-04T21:44:51.581Z,5.40
2023-03-04T21:47:20.912Z,5.40
2023-03-04T21:49:48.753Z,5.40
2023-03-04T21:52:16.974Z,5.40
2023-03-04T21:54:44.474Z,5.30
2023-03-04T21:57:14.829Z,5.20
2023-03-04T21:59:48.621Z,5.20
2023-03-04T22:02:19.545Z,5.10
2023-03-04T22:04:47.574Z,5.10
2023-03-04T22:07:14.669Z,5.10
2023-03-04T22:09:43.796Z,5.00
2023-03-04T22:12:10.941Z,5.00
2023-03-04T22:14:38.270Z,5.00
2023-03-04T22:17:05.617Z,5.00
2023-03-04T22:19:35.747Z,5.00
2023-03-04T22:22:02.883Z,5.10
2023-03-04T22:24:29.994Z,5.10
2023-03-04T22:26:57.684Z,5.20
2023-03-04T22:29:24.705Z,5.20
2023-03-04T22:31:51.964Z,5.30
2023-03-04T22:34:19.306Z,5.30
2023-03-04T22:36:47.006Z,5.30
2023-03-04T22:39:19.366Z,5.30
2023-03-04T22:41:46.707Z,5.30
2023-03-04T22:44:14.163Z,5.30
2023-03-04T22:46:41.344Z,5.30
2023-03-04T22:49:11.529Z,5.30
2023-03-04T22:51:43.110Z,5.30
2023-03-04T22:54:15.704Z,5.30
2023-03-04T22:56:43.104Z,5.20
2023-03-04T22:59:10.426Z,5.20
2023-03-04T23:01:37.487Z,5.10
2023-03-04T23:04:04.844Z,5.10
2023-03-04T23:06:32.250Z,5.10
2023-03-04T23:09:00.211Z,5.10
2023-03-04T23:11:32.893Z,5.10
2023-03-04T23:14:17.115Z,5.10
2023-03-04T23:16:53.349Z,5.10
2023-03-04T23:19:20.427Z,5.10
2023-03-04T23:21:47.873Z,5.20
2023-03-04T23:24:14.951Z,5.20
2023-03-04T23:26:43.573Z,5.20
2023-03-04T23:29:14.260Z,5.20
2023-03-04T23:31:42.670Z,5.20
2023-03-04T23:34:11.261Z,5.10
2023-03-04T23:36:38.425Z,5.20
2023-03-04T23:39:07.111Z,5.20
2023-03-04T23:41:35.611Z,5.20
2023-03-04T23:44:02.896Z,5.20
2023-03-04T23:46:30.082Z,5.10
2023-03-04T23:48:57.690Z,5.10
2023-03-04T23:51:27.851Z,5.10
2023-03-04T23:53:55.328Z,5.10
2023-03-04T23:56:25.167Z,5.10
2023-03-04T23:58:52.241Z,5.10
